Aeroporto :







RITROVATECI SU...

 
LOGIN :

Iscrizione | Disclaimer

   EN    FR    IT 

 









Sommario :    VFR   VFR Marginale   IFR   IFR Intensivo   IFR Molto Intensivo
Visibilità : 
Base nubi : 
>= 8 km
>= 3000ft
5 / 8 km
1000 / 3000 ft
1500m / 5 km
500 / 1000 ft
800 / 1500m
200 / 500 ft
< 800m
< 200 ft
Simboli :   Temporali  Nebbia  Neve Forte  Precipitazioni Forti  Vento > 20 kt






- Altitudine del aeroporto : 285 ft
- Codice IATA : ALB


KALB - Albany International

ULTIMO METAR :
  • 290944Z 00000KT 2 1/2SM -DZ BR BKN003 OVC017 06/04 A3005 RMK AO2 TWR VIS 3 RAE11DZB11 P0001 T00610039

METARs OBSOLETI :
  • 290905Z 03003KT 3SM -RA BR BKN004 OVC011 06/04 A3006 RMK AO2 P0000 T00610044
  • 290751Z 00000KT 2SM -DZ BR OVC003 06/04 A3006 RMK AO2 TWR VIS 3 SLP182 VIS 1 1/2V2 1/2 P0001 T00610044
  • 290651Z 00000KT 2SM -DZ BR BKN003 BKN006 OVC012 06/04 A3006 RMK AO2 TWR VIS 3 DZE22B46RAB22E46 SLP181 P0001 T00610044

TAF KALB
Valido dal 29 a 09 ore il 30 a 06 ore UTC


290906Z 2909/3006 09004KT 3SM -RADZ BR BKN007 OVC015
TEMPO 2909/2913 2SM -RADZ OVC003
FM291300 17010G16KT 2SM -RA BR OVC004
FM300100 VRB03KT 4SM -DZ BR OVC015



MetMap, La meteo Aeronautica in un colpo d'occhio ! - Copyright ORBIFLY Dicembre 2007 - Disclaimer

ORBIFLY MET'MAP TEAM :

Programmazione e sviluppo : Alexandra Zaïnal
Concezione : Baudouin d'Aumeries
Aiuto per la programmazione : Marc-Olivier Méhu
Supporto tecnico e logistico : Manuel Goepfert
Aiuto per la traduzione : Arnaldo La Scala

Contatto : metmap@orbifly.com




FONTI E CREDITI :

   NOAA